sensor_id;sensor_type;location;lat;lon;timestamp;pressure;altitude;pressure_sealevel;temperature;humidity
11830;BME280;5972;42.134;24.718;2023-03-04T00:02:12;99863.41;;;5.72;100.00
11830;BME280;5972;42.134;24.718;2023-03-04T00:04:39;99865.97;;;5.77;100.00
11830;BME280;5972;42.134;24.718;2023-03-04T00:07:06;99873.59;;;5.84;100.00
11830;BME280;5972;42.134;24.718;2023-03-04T00:09:35;99865.22;;;5.85;100.00
11830;BME280;5972;42.134;24.718;2023-03-04T00:12:02;99872.72;;;5.89;100.00
11830;BME280;5972;42.134;24.718;2023-03-04T00:14:28;99848.75;;;5.78;100.00
11830;BME280;5972;42.134;24.718;2023-03-04T00:16:55;99854.00;;;5.83;100.00
11830;BME280;5972;42.134;24.718;2023-03-04T00:19:22;99859.66;;;5.96;100.00
11830;BME280;5972;42.134;24.718;2023-03-04T00:21:49;99858.56;;;5.97;100.00
11830;BME280;5972;42.134;24.718;2023-03-04T00:24:16;99857.47;;;5.98;100.00
11830;BME280;5972;42.134;24.718;2023-03-04T00:26:44;99864.53;;;5.94;100.00
11830;BME280;5972;42.134;24.718;2023-03-04T00:29:11;99858.38;;;5.93;100.00
11830;BME280;5972;42.134;24.718;2023-03-04T00:31:38;99865.34;;;5.94;100.00
11830;BME280;5972;42.134;24.718;2023-03-04T00:34:05;99856.59;;;5.89;100.00
11830;BME280;5972;42.134;24.718;2023-03-04T00:36:32;99860.25;;;5.93;100.00
11830;BME280;5972;42.134;24.718;2023-03-04T00:38:58;99853.22;;;5.83;100.00
11830;BME280;5972;42.134;24.718;2023-03-04T00:41:25;99843.19;;;5.75;100.00
11830;BME280;5972;42.134;24.718;2023-03-04T00:43:53;99842.09;;;5.76;100.00
11830;BME280;5972;42.134;24.718;2023-03-04T00:46:20;99837.63;;;5.71;100.00
11830;BME280;5972;42.134;24.718;2023-03-04T00:48:47;99854.31;;;5.82;100.00
11830;BME280;5972;42.134;24.718;2023-03-04T00:51:14;99862.53;;;5.85;100.00
11830;BME280;5972;42.134;24.718;2023-03-04T00:53:40;99862.28;;;5.87;100.00
11830;BME280;5972;42.134;24.718;2023-03-04T00:56:07;99863.25;;;5.91;100.00
11830;BME280;5972;42.134;24.718;2023-03-04T00:58:34;99861.19;;;5.88;100.00
11830;BME280;5972;42.134;24.718;2023-03-04T01:01:02;99866.13;;;5.95;100.00
11830;BME280;5972;42.134;24.718;2023-03-04T01:03:29;99857.16;;;5.85;100.00
11830;BME280;5972;42.134;24.718;2023-03-04T01:05:57;99870.72;;;5.94;100.00
11830;BME280;5972;42.134;24.718;2023-03-04T01:08:24;99862.66;;;5.94;100.00
11830;BME280;5972;42.134;24.718;2023-03-04T01:10:51;99861.56;;;5.95;100.00
11830;BME280;5972;42.134;24.718;2023-03-04T01:13:18;99860.75;;;5.95;100.00
11830;BME280;5972;42.134;24.718;2023-03-04T01:15:45;99858.25;;;5.98;100.00
11830;BME280;5972;42.134;24.718;2023-03-04T01:18:13;99849.78;;;6.05;100.00
11830;BME280;5972;42.134;24.718;2023-03-04T01:20:40;99837.13;;;6.05;100.00
11830;BME280;5972;42.134;24.718;2023-03-04T01:23:06;99837.81;;;6.11;100.00
11830;BME280;5972;42.134;24.718;2023-03-04T01:25:33;99839.81;;;6.05;100.00
11830;BME280;5972;42.134;24.718;2023-03-04T01:28:00;99838.22;;;6.04;100.00
11830;BME280;5972;42.134;24.718;2023-03-04T01:30:27;99839.13;;;5.77;100.00
11830;BME280;5972;42.134;24.718;2023-03-04T01:32:53;99835.38;;;5.65;100.00
11830;BME280;5972;42.134;24.718;2023-03-04T01:35:22;99838.81;;;5.79;100.00
11830;BME280;5972;42.134;24.718;2023-03-04T01:37:48;99832.94;;;5.77;100.00
11830;BME280;5972;42.134;24.718;2023-03-04T01:40:16;99837.25;;;5.64;100.00
11830;BME280;5972;42.134;24.718;2023-03-04T01:42:43;99839.94;;;5.64;100.00
11830;BME280;5972;42.134;24.718;2023-03-04T01:45:12;99830.28;;;5.63;100.00
11830;BME280;5972;42.134;24.718;2023-03-04T01:47:40;99808.66;;;5.24;100.00
11830;BME280;5972;42.134;24.718;2023-03-04T01:50:18;99831.56;;;5.43;100.00
11830;BME280;5972;42.134;24.718;2023-03-04T01:52:47;99833.25;;;5.39;100.00
11830;BME280;5972;42.134;24.718;2023-03-04T01:55:16;99824.88;;;5.41;100.00
11830;BME280;5972;42.134;24.718;2023-03-04T01:57:43;99832.34;;;5.44;100.00
11830;BME280;5972;42.134;24.718;2023-03-04T02:00:21;99820.13;;;5.52;100.00
11830;BME280;5972;42.134;24.718;2023-03-04T02:02:50;99825.44;;;5.65;100.00
11830;BME280;5972;42.134;24.718;2023-03-04T02:05:19;99837.22;;;5.78;100.00
11830;BME280;5972;42.134;24.718;2023-03-04T02:07:48;99828.75;;;5.84;100.00
11830;BME280;5972;42.134;24.718;2023-03-04T02:10:15;99827.75;;;5.94;100.00
11830;BME280;5972;42.134;24.718;2023-03-04T02:12:42;99819.69;;;5.94;100.00
11830;BME280;5972;42.134;24.718;2023-03-04T02:15:10;99830.53;;;5.89;100.00
11830;BME280;5972;42.134;24.718;2023-03-04T02:17:37;99823.59;;;5.88;100.00
11830;BME280;5972;42.134;24.718;2023-03-04T02:20:17;99814.47;;;5.98;100.00
11830;BME280;5972;42.134;24.718;2023-03-04T02:22:54;99815.94;;;6.04;100.00
11830;BME280;5972;42.134;24.718;2023-03-04T02:25:30;99819.97;;;6.15;100.00
11830;BME280;5972;42.134;24.718;2023-03-04T02:28:00;99819.03;;;6.19;100.00
11830;BME280;5972;42.134;24.718;2023-03-04T02:30:27;99818.06;;;6.15;100.00
11830;BME280;5972;42.134;24.718;2023-03-04T02:32:54;99815.03;;;6.08;100.00
11830;BME280;5972;42.134;24.718;2023-03-04T02:35:21;99804.09;;;6.05;100.00
11830;BME280;5972;42.134;24.718;2023-03-04T02:37:48;99803.00;;;6.06;100.00
11830;BME280;5972;42.134;24.718;2023-03-04T02:40:20;99801.25;;;6.01;100.00
11830;BME280;5972;42.134;24.718;2023-03-04T02:42:48;99795.38;;;5.99;100.00
11830;BME280;5972;42.134;24.718;2023-03-04T02:45:39;99802.16;;;5.97;100.00
11830;BME280;5972;42.134;24.718;2023-03-04T02:48:07;99802.34;;;6.00;100.00
11830;BME280;5972;42.134;24.718;2023-03-04T02:50:37;99793.63;;;5.95;100.00
11830;BME280;5972;42.134;24.718;2023-03-04T02:53:06;99795.72;;;5.84;100.00
11830;BME280;5972;42.134;24.718;2023-03-04T02:55:33;99791.75;;;5.81;100.00
11830;BME280;5972;42.134;24.718;2023-03-04T02:57:59;99781.22;;;5.63;100.00
11830;BME280;5972;42.134;24.718;2023-03-04T03:00:27;99807.44;;;5.66;100.00
11830;BME280;5972;42.134;24.718;2023-03-04T03:02:58;99813.72;;;5.61;100.00
11830;BME280;5972;42.134;24.718;2023-03-04T03:05:26;99808.94;;;5.58;100.00
11830;BME280;5972;42.134;24.718;2023-03-04T03:07:55;99812.63;;;5.62;100.00
11830;BME280;5972;42.134;24.718;2023-03-04T03:10:22;99815.47;;;5.66;100.00
11830;BME280;5972;42.134;24.718;2023-03-04T03:12:48;99815.78;;;5.64;100.00
11830;BME280;5972;42.134;24.718;2023-03-04T03:15:16;99819.56;;;5.63;100.00
11830;BME280;5972;42.134;24.718;2023-03-04T03:17:43;99823.25;;;5.67;100.00
11830;BME280;5972;42.134;24.718;2023-03-04T03:20:12;99811.03;;;5.61;100.00
11830;BME280;5972;42.134;24.718;2023-03-04T03:22:40;99824.63;;;5.65;100.00
11830;BME280;5972;42.134;24.718;2023-03-04T03:25:08;99822.91;;;5.69;100.00
11830;BME280;5972;42.134;24.718;2023-03-04T03:27:35;99828.00;;;5.70;100.00
11830;BME280;5972;42.134;24.718;2023-03-04T03:30:03;99831.28;;;5.67;100.00
11830;BME280;5972;42.134;24.718;2023-03-04T03:32:30;99824.63;;;5.65;100.00
11830;BME280;5972;42.134;24.718;2023-03-04T03:34:57;99832.38;;;5.66;100.00
11830;BME280;5972;42.134;24.718;2023-03-04T03:37:25;99831.72;;;5.61;100.00
11830;BME280;5972;42.134;24.718;2023-03-04T03:39:51;99821.47;;;5.63;100.00
11830;BME280;5972;42.134;24.718;2023-03-04T03:42:18;99818.28;;;5.61;100.00
11830;BME280;5972;42.134;24.718;2023-03-04T03:44:45;99820.69;;;5.49;100.00
11830;BME280;5972;42.134;24.718;2023-03-04T03:47:12;99814.16;;;5.41;100.00
11830;BME280;5972;42.134;24.718;2023-03-04T03:49:39;99791.66;;;5.28;100.00
11830;BME280;5972;42.134;24.718;2023-03-04T03:52:05;99824.41;;;5.39;100.00
11830;BME280;5972;42.134;24.718;2023-03-04T03:54:37;99821.75;;;5.25;100.00
11830;BME280;5972;42.134;24.718;2023-03-04T03:57:03;99822.16;;;5.19;100.00
11830;BME280;5972;42.134;24.718;2023-03-04T03:59:30;99819.47;;;5.19;100.00
11830;BME280;5972;42.134;24.718;2023-03-04T04:01:57;99817.91;;;5.18;100.00
11830;BME280;5972;42.134;24.718;2023-03-04T04:04:24;99817.28;;;5.21;100.00
11830;BME280;5972;42.134;24.718;2023-03-04T04:06:51;99819.38;;;5.10;100.00
11830;BME280;5972;42.134;24.718;2023-03-04T04:09:18;99798.84;;;5.06;100.00
11830;BME280;5972;42.134;24.718;2023-03-04T04:11:46;99812.31;;;5.14;100.00
11830;BME280;5972;42.134;24.718;2023-03-04T04:14:13;99819.97;;;5.21;100.00
11830;BME280;5972;42.134;24.718;2023-03-04T04:16:40;99819.06;;;5.25;100.00
11830;BME280;5972;42.134;24.718;2023-03-04T04:19:08;99814.72;;;5.16;100.00
11830;BME280;5972;42.134;24.718;2023-03-04T04:21:35;99816.13;;;4.99;100.00
11830;BME280;5972;42.134;24.718;2023-03-04T04:24:02;99805.47;;;5.08;100.00
11830;BME280;5972;42.134;24.718;2023-03-04T04:26:29;99812.72;;;5.21;100.00
11830;BME280;5972;42.134;24.718;2023-03-04T04:28:57;99800.84;;;5.00;100.00
11830;BME280;5972;42.134;24.718;2023-03-04T04:31:24;99823.75;;;5.20;100.00
11830;BME280;5972;42.134;24.718;2023-03-04T04:33:51;99835.56;;;5.19;100.00
11830;BME280;5972;42.134;24.718;2023-03-04T04:36:18;99841.81;;;5.28;100.00
11830;BME280;5972;42.134;24.718;2023-03-04T04:38:44;99843.41;;;5.29;100.00
11830;BME280;5972;42.134;24.718;2023-03-04T04:41:18;99840.22;;;5.27;100.00
11830;BME280;5972;42.134;24.718;2023-03-04T04:43:48;99837.16;;;5.33;100.00
11830;BME280;5972;42.134;24.718;2023-03-04T04:46:16;99831.16;;;5.36;100.00
11830;BME280;5972;42.134;24.718;2023-03-04T04:48:44;99835.72;;;5.36;100.00
11830;BME280;5972;42.134;24.718;2023-03-04T04:51:11;99832.00;;;5.10;100.00
11830;BME280;5972;42.134;24.718;2023-03-04T04:53:38;99834.19;;;5.21;100.00
11830;BME280;5972;42.134;24.718;2023-03-04T04:56:10;99842.22;;;5.35;100.00
11830;BME280;5972;42.134;24.718;2023-03-04T04:58:37;99838.63;;;5.39;100.00
11830;BME280;5972;42.134;24.718;2023-03-04T05:01:04;99847.16;;;5.41;100.00
11830;BME280;5972;42.134;24.718;2023-03-04T05:03:34;99812.94;;;5.11;100.00
11830;BME280;5972;42.134;24.718;2023-03-04T05:06:02;99847.16;;;5.41;100.00
11830;BME280;5972;42.134;24.718;2023-03-04T05:08:29;99857.97;;;5.50;100.00
11830;BME280;5972;42.134;24.718;2023-03-04T05:10:56;99855.00;;;5.52;100.00
11830;BME280;5972;42.134;24.718;2023-03-04T05:13:23;99852.91;;;5.49;100.00
11830;BME280;5972;42.134;24.718;2023-03-04T05:15:50;99850.75;;;5.37;100.00
11830;BME280;5972;42.134;24.718;2023-03-04T05:18:18;99854.34;;;5.32;100.00
11830;BME280;5972;42.134;24.718;2023-03-04T05:20:50;99854.72;;;5.26;100.00
11830;BME280;5972;42.134;24.718;2023-03-04T05:23:17;99847.38;;;5.31;100.00
11830;BME280;5972;42.134;24.718;2023-03-04T05:25:44;99850.44;;;5.38;100.00
11830;BME280;5972;42.134;24.718;2023-03-04T05:28:11;99856.91;;;5.51;100.00
11830;BME280;5972;42.134;24.718;2023-03-04T05:30:38;99822.63;;;5.34;100.00
11830;BME280;5972;42.134;24.718;2023-03-04T05:33:05;99852.28;;;5.65;100.00
11830;BME280;5972;42.134;24.718;2023-03-04T05:35:34;99858.94;;;5.68;100.00
11830;BME280;5972;42.134;24.718;2023-03-04T05:38:03;99851.84;;;5.72;100.00
11830;BME280;5972;42.134;24.718;2023-03-04T05:40:30;99842.34;;;5.52;100.00
11830;BME280;5972;42.134;24.718;2023-03-04T05:42:57;99825.03;;;5.58;100.00
11830;BME280;5972;42.134;24.718;2023-03-04T05:45:24;99848.38;;;5.71;100.00
11830;BME280;5972;42.134;24.718;2023-03-04T05:47:52;99856.28;;;5.54;100.00
11830;BME280;5972;42.134;24.718;2023-03-04T05:50:20;99869.13;;;5.30;100.00
11830;BME280;5972;42.134;24.718;2023-03-04T05:52:47;99876.13;;;4.90;100.00
11830;BME280;5972;42.134;24.718;2023-03-04T05:55:15;99860.38;;;4.70;100.00
11830;BME280;5972;42.134;24.718;2023-03-04T05:57:42;99864.28;;;4.77;100.00
11830;BME280;5972;42.134;24.718;2023-03-04T06:00:10;99865.38;;;4.76;100.00
11830;BME280;5972;42.134;24.718;2023-03-04T06:02:38;99874.72;;;4.92;100.00
11830;BME280;5972;42.134;24.718;2023-03-04T06:05:05;99878.25;;;4.60;100.00
11830;BME280;5972;42.134;24.718;2023-03-04T06:07:32;99879.06;;;4.61;100.00
11830;BME280;5972;42.134;24.718;2023-03-04T06:09:59;99878.47;;;4.32;100.00
11830;BME280;5972;42.134;24.718;2023-03-04T06:12:28;99885.38;;;4.51;100.00
11830;BME280;5972;42.134;24.718;2023-03-04T06:14:54;99883.47;;;4.84;100.00
11830;BME280;5972;42.134;24.718;2023-03-04T06:17:21;99845.63;;;4.72;100.00
11830;BME280;5972;42.134;24.718;2023-03-04T06:19:48;99879.28;;;5.06;100.00
11830;BME280;5972;42.134;24.718;2023-03-04T06:22:15;99890.81;;;5.06;100.00
11830;BME280;5972;42.134;24.718;2023-03-04T06:24:42;99887.25;;;5.11;100.00
11830;BME280;5972;42.134;24.718;2023-03-04T06:27:09;99884.97;;;5.18;100.00
11830;BME280;5972;42.134;24.718;2023-03-04T06:29:37;99899.56;;;5.12;100.00
11830;BME280;5972;42.134;24.718;2023-03-04T06:32:04;99907.00;;;5.15;100.00
11830;BME280;5972;42.134;24.718;2023-03-04T06:34:31;99906.19;;;5.14;100.00
11830;BME280;5972;42.134;24.718;2023-03-04T06:36:58;99909.38;;;5.16;100.00
11830;BME280;5972;42.134;24.718;2023-03-04T06:39:25;99906.31;;;5.09;100.00
11830;BME280;5972;42.134;24.718;2023-03-04T06:41:52;99909.56;;;4.92;100.00
11830;BME280;5972;42.134;24.718;2023-03-04T06:44:19;99914.84;;;4.84;100.00
11830;BME280;5972;42.134;24.718;2023-03-04T06:46:47;99918.22;;;4.89;100.00
11830;BME280;5972;42.134;24.718;2023-03-04T06:49:14;99923.69;;;4.84;100.00
11830;BME280;5972;42.134;24.718;2023-03-04T06:51:40;99922.38;;;4.82;100.00
11830;BME280;5972;42.134;24.718;2023-03-04T06:54:08;99890.38;;;4.72;100.00
11830;BME280;5972;42.134;24.718;2023-03-04T06:56:35;99920.09;;;5.02;100.00
11830;BME280;5972;42.134;24.718;2023-03-04T06:59:02;99920.53;;;5.23;100.00
11830;BME280;5972;42.134;24.718;2023-03-04T07:01:29;99919.94;;;5.40;100.00
11830;BME280;5972;42.134;24.718;2023-03-04T07:03:57;99922.50;;;5.45;100.00
11830;BME280;5972;42.134;24.718;2023-03-04T07:06:26;99922.41;;;5.50;100.00
11830;BME280;5972;42.134;24.718;2023-03-04T07:08:53;99925.25;;;5.67;100.00
11830;BME280;5972;42.134;24.718;2023-03-04T07:11:21;99922.75;;;5.84;100.00
11830;BME280;5972;42.134;24.718;2023-03-04T07:13:49;99910.31;;;5.89;100.00
11830;BME280;5972;42.134;24.718;2023-03-04T07:16:18;99920.78;;;6.12;100.00
11830;BME280;5972;42.134;24.718;2023-03-04T07:18:45;99920.47;;;6.36;100.00
11830;BME280;5972;42.134;24.718;2023-03-04T07:21:14;99923.13;;;6.50;100.00
11830;BME280;5972;42.134;24.718;2023-03-04T07:23:41;99919.88;;;6.61;100.00
11830;BME280;5972;42.134;24.718;2023-03-04T07:26:08;99917.19;;;6.61;100.00
11830;BME280;5972;42.134;24.718;2023-03-04T07:28:35;99910.91;;;6.75;100.00
11830;BME280;5972;42.134;24.718;2023-03-04T07:31:10;99916.06;;;6.93;100.00
11830;BME280;5972;42.134;24.718;2023-03-04T07:33:37;99907.88;;;6.98;100.00
11830;BME280;5972;42.134;24.718;2023-03-04T07:36:05;99911.44;;;7.25;100.00
11830;BME280;5972;42.134;24.718;2023-03-04T07:38:33;99910.53;;;7.38;100.00
11830;BME280;5972;42.134;24.718;2023-03-04T07:41:00;99899.16;;;7.49;100.00
11830;BME280;5972;42.134;24.718;2023-03-04T07:43:27;99899.03;;;7.55;100.00
11830;BME280;5972;42.134;24.718;2023-03-04T07:45:58;99867.47;;;7.38;100.00
11830;BME280;5972;42.134;24.718;2023-03-04T07:48:26;99901.09;;;7.58;100.00
11830;BME280;5972;42.134;24.718;2023-03-04T07:51:02;99897.13;;;7.46;100.00
11830;BME280;5972;42.134;24.718;2023-03-04T07:53:30;99892.69;;;7.50;100.00
11830;BME280;5972;42.134;24.718;2023-03-04T07:55:58;99888.59;;;7.70;100.00
11830;BME280;5972;42.134;24.718;2023-03-04T07:58:25;99888.34;;;7.32;100.00
11830;BME280;5972;42.134;24.718;2023-03-04T08:00:52;99873.50;;;7.43;100.00
11830;BME280;5972;42.134;24.718;2023-03-04T08:03:19;99890.00;;;7.59;100.00
11830;BME280;5972;42.134;24.718;2023-03-04T08:05:45;99889.03;;;7.64;100.00
11830;BME280;5972;42.134;24.718;2023-03-04T08:08:12;99877.78;;;7.44;100.00
11830;BME280;5972;42.134;24.718;2023-03-04T08:10:39;99888.13;;;7.77;100.00
11830;BME280;5972;42.134;24.718;2023-03-04T08:13:08;99884.47;;;7.81;100.00
11830;BME280;5972;42.134;24.718;2023-03-04T08:15:38;99892.56;;;7.99;100.00
11830;BME280;5972;42.134;24.718;2023-03-04T08:18:05;99895.25;;;8.16;100.00
11830;BME280;5972;42.134;24.718;2023-03-04T08:20:32;99891.94;;;8.19;100.00
11830;BME280;5972;42.134;24.718;2023-03-04T08:22:59;99881.47;;;8.17;100.00
11830;BME280;5972;42.134;24.718;2023-03-04T08:25:26;99895.94;;;8.30;100.00
11830;BME280;5972;42.134;24.718;2023-03-04T08:27:53;99902.72;;;8.45;100.00
11830;BME280;5972;42.134;24.718;2023-03-04T08:30:21;99897.78;;;8.55;100.00
11830;BME280;5972;42.134;24.718;2023-03-04T08:32:48;99909.03;;;8.57;100.00
11830;BME280;5972;42.134;24.718;2023-03-04T08:35:15;99870.19;;;8.50;100.00
11830;BME280;5972;42.134;24.718;2023-03-04T08:37:42;99898.34;;;8.78;100.00
11830;BME280;5972;42.134;24.718;2023-03-04T08:40:12;99897.59;;;8.60;100.00
11830;BME280;5972;42.134;24.718;2023-03-04T08:42:39;99889.16;;;8.79;100.00
11830;BME280;5972;42.134;24.718;2023-03-04T08:45:07;99902.91;;;8.86;100.00
11830;BME280;5972;42.134;24.718;2023-03-04T08:47:35;99906.22;;;8.92;100.00
11830;BME280;5972;42.134;24.718;2023-03-04T08:50:03;99906.88;;;8.89;100.00
11830;BME280;5972;42.134;24.718;2023-03-04T08:52:30;99901.19;;;9.19;100.00
11830;BME280;5972;42.134;24.718;2023-03-04T08:54:56;99893.78;;;9.46;100.00
11830;BME280;5972;42.134;24.718;2023-03-04T08:57:24;99898.00;;;9.76;100.00
11830;BME280;5972;42.134;24.718;2023-03-04T08:59:51;99898.47;;;9.99;100.00
11830;BME280;5972;42.134;24.718;2023-03-04T09:02:17;99895.78;;;9.99;100.00
11830;BME280;5972;42.134;24.718;2023-03-04T09:04:46;99882.69;;;10.42;100.00
11830;BME280;5972;42.134;24.718;2023-03-04T09:07:12;99893.19;;;11.01;100.00
11830;BME280;5972;42.134;24.718;2023-03-04T09:09:39;99878.72;;;11.58;100.00
11830;BME280;5972;42.134;24.718;2023-03-04T09:12:06;99879.25;;;11.88;100.00
11830;BME280;5972;42.134;24.718;2023-03-04T09:14:33;99875.59;;;12.08;100.00
11830;BME280;5972;42.134;24.718;2023-03-04T09:17:01;99873.75;;;12.12;100.00
11830;BME280;5972;42.134;24.718;2023-03-04T09:19:28;99877.69;;;11.87;100.00
11830;BME280;5972;42.134;24.718;2023-03-04T09:21:56;99870.94;;;11.44;100.00
11830;BME280;5972;42.134;24.718;2023-03-04T09:24:23;99884.06;;;11.06;100.00
11830;BME280;5972;42.134;24.718;2023-03-04T09:26:51;99870.19;;;11.07;100.00
11830;BME280;5972;42.134;24.718;2023-03-04T09:29:18;99872.56;;;10.97;100.00
11830;BME280;5972;42.134;24.718;2023-03-04T09:31:45;99848.53;;;11.19;100.00
11830;BME280;5972;42.134;24.718;2023-03-04T09:34:12;99871.84;;;11.48;100.00
11830;BME280;5972;42.134;24.718;2023-03-04T09:36:39;99857.84;;;11.58;100.00
11830;BME280;5972;42.134;24.718;2023-03-04T09:39:08;99859.34;;;11.96;100.00
11830;BME280;5972;42.134;24.718;2023-03-04T09:41:38;99868.41;;;12.16;100.00
11830;BME280;5972;42.134;24.718;2023-03-04T09:44:12;99857.47;;;12.12;100.00
11830;BME280;5972;42.134;24.718;2023-03-04T09:46:40;99860.13;;;12.52;100.00
11830;BME280;5972;42.134;24.718;2023-03-04T09:49:09;99863.88;;;13.10;100.00
11830;BME280;5972;42.134;24.718;2023-03-04T09:51:47;99859.00;;;13.31;100.00
11830;BME280;5972;42.134;24.718;2023-03-04T09:54:26;99864.19;;;13.91;100.00
11830;BME280;5972;42.134;24.718;2023-03-04T09:57:10;99852.19;;;14.53;100.00
11830;BME280;5972;42.134;24.718;2023-03-04T09:59:45;99855.66;;;14.73;97.65
11830;BME280;5972;42.134;24.718;2023-03-04T10:02:20;99856.09;;;14.75;94.85
11830;BME280;5972;42.134;24.718;2023-03-04T10:04:57;99857.47;;;14.65;91.33
11830;BME280;5972;42.134;24.718;2023-03-04T10:07:27;99844.97;;;14.41;94.20
11830;BME280;5972;42.134;24.718;2023-03-04T10:10:01;99835.91;;;14.14;92.02
11830;BME280;5972;42.134;24.718;2023-03-04T10:12:32;99834.91;;;14.03;92.63
11830;BME280;5972;42.134;24.718;2023-03-04T10:15:04;99830.88;;;13.78;97.15
11830;BME280;5972;42.134;24.718;2023-03-04T10:17:34;99829.88;;;13.67;95.38
11830;BME280;5972;42.134;24.718;2023-03-04T10:20:04;99834.78;;;13.42;99.05
11830;BME280;5972;42.134;24.718;2023-03-04T10:22:35;99820.06;;;13.27;100.00
11830;BME280;5972;42.134;24.718;2023-03-04T10:25:15;99810.72;;;13.09;100.00
11830;BME280;5972;42.134;24.718;2023-03-04T10:27:42;99816.44;;;13.20;100.00
11830;BME280;5972;42.134;24.718;2023-03-04T10:30:20;99812.53;;;13.21;100.00
11830;BME280;5972;42.134;24.718;2023-03-04T10:32:49;99813.59;;;13.16;100.00
11830;BME280;5972;42.134;24.718;2023-03-04T10:35:16;99807.09;;;13.05;100.00
11830;BME280;5972;42.134;24.718;2023-03-04T10:37:45;99795.22;;;12.78;100.00
11830;BME280;5972;42.134;24.718;2023-03-04T10:40:20;99789.19;;;12.54;100.00
11830;BME280;5972;42.134;24.718;2023-03-04T10:42:48;99795.56;;;12.61;100.00
11830;BME280;5972;42.134;24.718;2023-03-04T10:45:20;99788.75;;;12.67;100.00
11830;BME280;5972;42.134;24.718;2023-03-04T10:47:52;99782.28;;;12.56;100.00
11830;BME280;5972;42.134;24.718;2023-03-04T10:50:24;99772.81;;;12.34;100.00
11830;BME280;5972;42.134;24.718;2023-03-04T10:52:52;99781.47;;;12.40;100.00
11830;BME280;5972;42.134;24.718;2023-03-04T10:55:23;99773.25;;;12.36;100.00
11830;BME280;5972;42.134;24.718;2023-03-04T10:57:54;99772.00;;;12.65;100.00
11830;BME280;5972;42.134;24.718;2023-03-04T11:00:28;99767.63;;;12.76;100.00
11830;BME280;5972;42.134;24.718;2023-03-04T11:03:24;99752.88;;;12.93;100.00
11830;BME280;5972;42.134;24.718;2023-03-04T11:06:04;99739.25;;;12.89;100.00
11830;BME280;5972;42.134;24.718;2023-03-04T11:08:31;99750.34;;;13.00;100.00
11830;BME280;5972;42.134;24.718;2023-03-04T11:10:59;99733.63;;;12.98;100.00
11830;BME280;5972;42.134;24.718;2023-03-04T11:13:26;99725.63;;;13.05;100.00
11830;BME280;5972;42.134;24.718;2023-03-04T11:15:55;99710.53;;;13.43;100.00
11830;BME280;5972;42.134;24.718;2023-03-04T11:18:26;99679.47;;;13.63;100.00
11830;BME280;5972;42.134;24.718;2023-03-04T11:20:55;99702.25;;;13.97;100.00
11830;BME280;5972;42.134;24.718;2023-03-04T11:23:32;99701.06;;;13.56;100.00
11830;BME280;5972;42.134;24.718;2023-03-04T11:26:06;99710.88;;;13.80;100.00
11830;BME280;5972;42.134;24.718;2023-03-04T11:28:40;99710.38;;;13.55;100.00
11830;BME280;5972;42.134;24.718;2023-03-04T11:31:13;99705.56;;;13.67;100.00
11830;BME280;5972;42.134;24.718;2023-03-04T11:33:44;99698.34;;;13.56;100.00
11830;BME280;5972;42.134;24.718;2023-03-04T11:36:32;99701.59;;;13.42;100.00
11830;BME280;5972;42.134;24.718;2023-03-04T11:39:02;99695.16;;;12.96;100.00
11830;BME280;5972;42.134;24.718;2023-03-04T11:41:33;99684.22;;;12.93;100.00
11830;BME280;5972;42.134;24.718;2023-03-04T11:44:01;99687.28;;;12.91;100.00
11830;BME280;5972;42.134;24.718;2023-03-04T11:49:51;99677.84;;;13.04;100.00
11830;BME280;5972;42.134;24.718;2023-03-04T11:52:28;99674.78;;;12.86;100.00
11830;BME280;5972;42.134;24.718;2023-03-04T11:55:10;99678.06;;;12.61;100.00
11830;BME280;5972;42.134;24.718;2023-03-04T11:57:46;99675.22;;;12.22;100.00
11830;BME280;5972;42.134;24.718;2023-03-04T12:00:25;99673.53;;;12.49;100.00
11830;BME280;5972;42.134;24.718;2023-03-04T12:03:14;99669.53;;;12.27;100.00
11830;BME280;5972;42.134;24.718;2023-03-04T12:05:54;99659.38;;;12.24;100.00
11830;BME280;5972;42.134;24.718;2023-03-04T12:08:35;99667.41;;;12.52;100.00
11830;BME280;5972;42.134;24.718;2023-03-04T12:11:08;99663.91;;;12.86;100.00
11830;BME280;5972;42.134;24.718;2023-03-04T12:14:11;99665.81;;;13.21;100.00
11830;BME280;5972;42.134;24.718;2023-03-04T12:17:23;99664.75;;;13.45;100.00
11830;BME280;5972;42.134;24.718;2023-03-04T12:20:23;99655.53;;;13.72;100.00
11830;BME280;5972;42.134;24.718;2023-03-04T12:22:54;99660.13;;;13.87;100.00
11830;BME280;5972;42.134;24.718;2023-03-04T12:25:36;99655.41;;;13.42;100.00
11830;BME280;5972;42.134;24.718;2023-03-04T12:28:21;99659.25;;;14.06;100.00
11830;BME280;5972;42.134;24.718;2023-03-04T12:31:03;99621.41;;;13.97;98.91
11830;BME280;5972;42.134;24.718;2023-03-04T12:33:40;99648.78;;;13.85;100.00
11830;BME280;5972;42.134;24.718;2023-03-04T12:36:16;99651.81;;;13.80;97.72
11830;BME280;5972;42.134;24.718;2023-03-04T12:38:56;99637.44;;;13.18;100.00
11830;BME280;5972;42.134;24.718;2023-03-04T12:41:39;99639.09;;;13.23;100.00
11830;BME280;5972;42.134;24.718;2023-03-04T12:44:12;99636.06;;;13.28;100.00
11830;BME280;5972;42.134;24.718;2023-03-04T12:46:59;99642.78;;;13.34;100.00
11830;BME280;5972;42.134;24.718;2023-03-04T12:49:57;99634.06;;;13.44;100.00
11830;BME280;5972;42.134;24.718;2023-03-04T12:52:38;99628.16;;;13.61;99.56
11830;BME280;5972;42.134;24.718;2023-03-04T12:55:10;99627.47;;;13.87;98.24
11830;BME280;5972;42.134;24.718;2023-03-04T12:57:38;99612.94;;;13.57;93.45
11830;BME280;5972;42.134;24.718;2023-03-04T13:00:15;99618.13;;;13.23;98.46
11830;BME280;5972;42.134;24.718;2023-03-04T13:02:59;99621.13;;;13.38;100.00
11830;BME280;5972;42.134;24.718;2023-03-04T13:08:33;99604.59;;;13.46;100.00
11830;BME280;5972;42.134;24.718;2023-03-04T13:11:07;99599.69;;;13.55;100.00
11830;BME280;5972;42.134;24.718;2023-03-04T13:14:00;99594.84;;;13.87;99.49
11830;BME280;5972;42.134;24.718;2023-03-04T13:16:29;99599.34;;;14.02;97.52
11830;BME280;5972;42.134;24.718;2023-03-04T13:18:59;99600.19;;;14.06;94.45